Time;durP1;ratioP1;P1;durP2;ratioP2;P2;SDS_P1;SDS_P2;PMS_P1;PMS_P2;Temp;Humidity;BMP_temperature;BMP_pressure;BME280_temperature;BME280_humidity;BME280_pressure;Samples;Min_cycle;Max_cycle;Signal;HPM_P1;HPM_P2
2023/01/04 00:00:46;;;;;;;8.60;6.78;;;;;;;;;;5032773;28;20431;-76
2023/01/04 00:03:13;;;;;;;10.68;7.30;;;;;;;;;;5050147;28;20049;-76
2023/01/04 00:05:40;;;;;;;8.68;6.68;;;;;;;;;;5035941;28;20045;-76
2023/01/04 00:08:07;;;;;;;11.15;7.07;;;;;;;;;;5051293;28;20114;-76
2023/01/04 00:10:34;;;;;;;7.40;6.47;;;;;;;;;;5050839;28;20060;-76
2023/01/04 00:13:01;;;;;;;10.23;7.05;;;;;;;;;;5051722;28;20053;-76
2023/01/04 00:15:27;;;;;;;8.23;6.80;;;;;;;;;;5035157;28;20412;-76
2023/01/04 00:17:54;;;;;;;8.18;6.95;;;;;;;;;;5067939;28;20096;-76
2023/01/04 00:20:21;;;;;;;8.98;6.68;;;;;;;;;;5068169;28;20095;-76
2023/01/04 00:22:47;;;;;;;8.82;6.85;;;;;;;;;;5068169;28;20049;-76
2023/01/04 00:25:14;;;;;;;10.48;6.70;;;;;;;;;;5068124;28;20412;-76
2023/01/04 00:27:41;;;;;;;8.00;6.45;;;;;;;;;;5051337;28;20064;-77
2023/01/04 00:30:08;;;;;;;9.65;7.15;;;;;;;;;;5051316;28;20523;-77
2023/01/04 00:32:35;;;;;;;10.10;7.53;;;;;;;;;;5068575;28;20386;-77
2023/01/04 00:35:02;;;;;;;10.02;7.07;;;;;;;;;;5053182;28;20139;-77
2023/01/04 00:37:30;;;;;;;8.13;6.32;;;;;;;;;;5068916;28;20053;-77
2023/01/04 00:39:56;;;;;;;10.85;6.57;;;;;;;;;;5035986;28;20104;-76
2023/01/04 00:42:23;;;;;;;7.80;6.13;;;;;;;;;;5050638;28;20064;-77
2023/01/04 00:44:50;;;;;;;6.63;5.90;;;;;;;;;;5050880;28;20048;-77
2023/01/04 00:47:16;;;;;;;7.07;6.03;;;;;;;;;;5050178;28;20053;-76
2023/01/04 00:49:43;;;;;;;7.93;5.60;;;;;;;;;;5050904;28;20056;-76
2023/01/04 00:52:10;;;;;;;6.10;5.22;;;;;;;;;;5050699;28;20451;-77
2023/01/04 00:54:37;;;;;;;7.68;6.03;;;;;;;;;;5051208;28;20049;-77
2023/01/04 00:57:04;;;;;;;5.90;4.88;;;;;;;;;;5067242;28;20052;-77
2023/01/04 00:59:30;;;;;;;7.15;5.45;;;;;;;;;;5067213;28;20132;-77
2023/01/04 01:01:57;;;;;;;6.60;5.10;;;;;;;;;;5050681;28;20048;-77
2023/01/04 01:04:24;;;;;;;6.55;5.15;;;;;;;;;;5066839;28;20570;-77
2023/01/04 01:06:51;;;;;;;5.68;5.07;;;;;;;;;;5066897;28;20131;-76
2023/01/04 01:09:21;;;;;;;5.68;4.72;;;;;;;;;;5050984;28;20053;-76
2023/01/04 01:11:49;;;;;;;8.13;4.72;;;;;;;;;;5066650;28;20602;-77
2023/01/04 01:14:22;;;;;;;7.80;5.63;;;;;;;;;;5050149;28;20057;-76
2023/01/04 01:16:49;;;;;;;5.13;4.60;;;;;;;;;;5048981;28;20064;-76
2023/01/04 01:19:27;;;;;;;7.85;5.05;;;;;;;;;;5034957;28;20072;-76
2023/01/04 01:21:56;;;;;;;8.38;5.28;;;;;;;;;;5034332;28;20048;-77
2023/01/04 01:24:23;;;;;;;7.18;5.35;;;;;;;;;;5051789;28;20049;-76
2023/01/04 01:26:49;;;;;;;7.95;5.35;;;;;;;;;;5034427;28;20500;-78
2023/01/04 01:29:16;;;;;;;7.22;5.30;;;;;;;;;;5035102;28;20057;-78
2023/01/04 01:31:43;;;;;;;7.97;5.53;;;;;;;;;;5068373;28;20063;-78
2023/01/04 01:34:10;;;;;;;8.45;5.70;;;;;;;;;;5052451;28;20080;-76
2023/01/04 01:36:37;;;;;;;7.85;5.10;;;;;;;;;;5049788;28;20059;-76
2023/01/04 01:39:04;;;;;;;6.32;5.03;;;;;;;;;;5035803;28;20425;-78
2023/01/04 01:41:33;;;;;;;6.50;5.40;;;;;;;;;;5058178;28;20057;-77
2023/01/04 01:44:04;;;;;;;6.32;4.60;;;;;;;;;;5034736;28;20057;-76
2023/01/04 01:46:47;;;;;;;7.95;5.70;;;;;;;;;;5049757;28;20056;-76
2023/01/04 01:49:25;;;;;;;6.57;5.45;;;;;;;;;;5050045;28;20102;-77
2023/01/04 01:51:55;;;;;;;6.72;5.10;;;;;;;;;;5049669;28;20484;-76
2023/01/04 01:54:30;;;;;;;8.45;5.03;;;;;;;;;;5032831;28;20045;-76
2023/01/04 01:56:57;;;;;;;8.57;5.75;;;;;;;;;;5032865;28;20405;-76
2023/01/04 01:59:24;;;;;;;8.90;5.53;;;;;;;;;;5049657;28;20059;-76
2023/01/04 02:01:51;;;;;;;8.18;5.72;;;;;;;;;;5034933;28;20057;-75
2023/01/04 02:04:18;;;;;;;6.13;5.43;;;;;;;;;;5049447;28;20060;-75
2023/01/04 02:06:49;;;;;;;7.03;5.78;;;;;;;;;;5032676;28;20064;-75
2023/01/04 02:09:17;;;;;;;7.53;5.40;;;;;;;;;;5032663;28;20500;-75
2023/01/04 02:11:44;;;;;;;7.28;5.85;;;;;;;;;;5060358;28;20064;-75
2023/01/04 02:14:25;;;;;;;7.35;6.20;;;;;;;;;;5068568;28;20554;-75
2023/01/04 02:16:52;;;;;;;7.35;5.40;;;;;;;;;;5048566;28;20045;-76
2023/01/04 02:19:31;;;;;;;8.13;5.93;;;;;;;;;;5065363;28;20057;-76
2023/01/04 02:22:22;;;;;;;9.20;6.03;;;;;;;;;;5065190;28;20472;-76
2023/01/04 02:24:58;;;;;;;7.47;5.53;;;;;;;;;;5065633;28;20068;-76
2023/01/04 02:27:27;;;;;;;7.03;5.25;;;;;;;;;;5028647;28;20045;-76
2023/01/04 02:30:33;;;;;;;7.40;5.60;;;;;;;;;;5046731;28;20106;-77
2023/01/04 02:33:18;;;;;;;7.97;4.95;;;;;;;;;;5044939;28;20081;-76
2023/01/04 02:36:06;;;;;;;7.15;5.75;;;;;;;;;;5048513;28;20468;-77
2023/01/04 02:38:44;;;;;;;7.47;5.00;;;;;;;;;;5063261;28;20060;-77
2023/01/04 02:41:25;;;;;;;6.60;4.88;;;;;;;;;;5074282;28;20032;-76
2023/01/04 02:47:12;;;;;;;7.82;5.80;;;;;;;;;;5041578;28;20145;-77
2023/01/04 02:52:30;;;;;;;5.53;4.93;;;;;;;;;;5049306;28;20057;-75
2023/01/04 02:54:57;;;;;;;7.57;5.55;;;;;;;;;;5048681;28;20057;-75
2023/01/04 02:57:33;;;;;;;7.75;5.43;;;;;;;;;;5047701;28;20052;-76
2023/01/04 03:00:28;;;;;;;7.30;5.70;;;;;;;;;;5048440;28;20056;-75
2023/01/04 03:06:17;;;;;;;8.65;6.10;;;;;;;;;;5062524;28;20060;-75
2023/01/04 03:08:51;;;;;;;6.55;5.45;;;;;;;;;;5047960;28;20060;-76
2023/01/04 03:14:15;;;;;;;7.82;5.80;;;;;;;;;;5049441;28;20611;-76
2023/01/04 03:16:59;;;;;;;6.90;5.70;;;;;;;;;;5047998;28;20143;-76
2023/01/04 03:35:21;;;;;;;9.80;5.75;;;;;;;;;;5034339;28;20056;-76
2023/01/04 03:36:19;;;;;;;6.75;5.68;;;;;;;;;;5052890;28;20052;-76
2023/01/04 03:48:30;;;;;;;8.57;6.95;;;;;;;;;;5052358;28;20785;-78
2023/01/04 03:51:13;;;;;;;9.38;6.85;;;;;;;;;;5036297;28;20084;-77
2023/01/04 03:53:50;;;;;;;8.75;6.65;;;;;;;;;;5053128;28;20048;-78
2023/01/04 03:56:17;;;;;;;8.80;6.85;;;;;;;;;;5053382;28;20443;-77
2023/01/04 03:58:44;;;;;;;11.68;6.80;;;;;;;;;;5058774;28;20060;-78
2023/01/04 04:01:11;;;;;;;8.23;6.40;;;;;;;;;;5040795;28;20061;-78
2023/01/04 04:09:08;;;;;;;7.43;6.07;;;;;;;;;;5056509;28;20797;-78
2023/01/04 04:11:35;;;;;;;7.45;6.03;;;;;;;;;;5071775;28;20057;-77
2023/01/04 04:14:02;;;;;;;10.38;6.55;;;;;;;;;;5036369;28;20440;-77
2023/01/04 04:16:28;;;;;;;6.90;5.72;;;;;;;;;;5052300;28;20095;-77
2023/01/04 04:18:55;;;;;;;9.07;5.60;;;;;;;;;;5036618;28;20053;-77
2023/01/04 04:21:22;;;;;;;8.40;5.80;;;;;;;;;;5038391;28;20060;-78
2023/01/04 04:23:49;;;;;;;8.35;5.85;;;;;;;;;;5055752;28;20056;-77
2023/01/04 04:26:16;;;;;;;6.30;5.07;;;;;;;;;;5053594;28;20053;-74
2023/01/04 04:28:43;;;;;;;4.93;4.35;;;;;;;;;;5034366;28;20438;-74
2023/01/04 04:31:09;;;;;;;6.00;4.85;;;;;;;;;;5051033;28;20052;-74
2023/01/04 04:33:36;;;;;;;5.68;4.53;;;;;;;;;;5051073;28;20059;-75
2023/01/04 04:36:03;;;;;;;5.88;4.93;;;;;;;;;;5050633;28;20057;-75
2023/01/04 04:38:30;;;;;;;6.22;4.88;;;;;;;;;;5050688;28;20107;-76
2023/01/04 04:43:42;;;;;;;6.60;4.22;;;;;;;;;;5052139;28;20053;-76
2023/01/04 04:46:09;;;;;;;4.85;3.72;;;;;;;;;;5034589;28;20060;-77
2023/01/04 04:48:36;;;;;;;5.50;3.92;;;;;;;;;;5051951;28;20490;-77
2023/01/04 04:51:02;;;;;;;5.53;3.38;;;;;;;;;;5041298;28;20303;-77
2023/01/04 04:53:29;;;;;;;3.88;3.45;;;;;;;;;;5041502;28;20053;-77
2023/01/04 04:55:56;;;;;;;5.43;4.00;;;;;;;;;;5075221;28;20405;-78
2023/01/04 04:58:23;;;;;;;4.32;3.65;;;;;;;;;;5040954;28;20094;-77
2023/01/04 05:00:49;;;;;;;3.70;3.30;;;;;;;;;;5058184;28;20061;-77
2023/01/04 05:03:16;;;;;;;5.03;3.63;;;;;;;;;;5056816;28;20397;-77
2023/01/04 05:05:43;;;;;;;3.75;3.20;;;;;;;;;;5054437;28;20049;-76
2023/01/04 05:08:10;;;;;;;3.90;3.00;;;;;;;;;;5051668;28;20460;-77
2023/01/04 05:10:37;;;;;;;3.75;3.25;;;;;;;;;;5051916;28;20049;-77
2023/01/04 05:13:06;;;;;;;3.40;2.95;;;;;;;;;;5051199;28;20060;-77
2023/01/04 05:15:35;;;;;;;6.82;3.72;;;;;;;;;;5051961;28;20040;-76
2023/01/04 05:18:02;;;;;;;4.95;3.25;;;;;;;;;;5050965;28;20057;-76
2023/01/04 05:20:29;;;;;;;3.28;2.92;;;;;;;;;;5053680;28;20136;-77
2023/01/04 05:22:56;;;;;;;4.13;3.05;;;;;;;;;;5059689;28;20060;-78
2023/01/04 05:25:23;;;;;;;3.70;3.35;;;;;;;;;;5063006;28;20117;-80
2023/01/04 05:27:49;;;;;;;5.45;3.47;;;;;;;;;;5040638;28;20488;-77
2023/01/04 05:33:03;;;;;;;3.90;2.92;;;;;;;;;;5066946;28;20048;-77
2023/01/04 05:35:30;;;;;;;3.50;3.00;;;;;;;;;;5058717;28;20413;-78
2023/01/04 05:37:56;;;;;;;4.65;3.47;;;;;;;;;;5060323;28;20053;-77
2023/01/04 05:40:23;;;;;;;4.75;3.58;;;;;;;;;;5072836;28;20059;-77
2023/01/04 05:42:50;;;;;;;4.35;3.60;;;;;;;;;;5058030;28;20061;-77
2023/01/04 05:45:18;;;;;;;4.90;3.55;;;;;;;;;;5074512;28;20048;-77
2023/01/04 05:47:45;;;;;;;5.57;4.25;;;;;;;;;;5058017;28;20041;-77
2023/01/04 05:50:11;;;;;;;8.43;4.57;;;;;;;;;;5039616;28;20056;-77
2023/01/04 05:52:38;;;;;;;3.80;3.40;;;;;;;;;;5057860;28;20486;-77
2023/01/04 05:55:05;;;;;;;4.30;3.35;;;;;;;;;;5058880;28;20045;-78
2023/01/04 05:57:32;;;;;;;4.85;3.50;;;;;;;;;;5037978;28;20057;-77
2023/01/04 05:59:59;;;;;;;5.45;4.15;;;;;;;;;;5050819;28;20143;-76
2023/01/04 06:02:28;;;;;;;5.75;4.15;;;;;;;;;;5049277;28;20060;-77
2023/01/04 06:04:55;;;;;;;4.72;4.10;;;;;;;;;;5035921;28;20083;-77
2023/01/04 06:07:26;;;;;;;4.05;3.45;;;;;;;;;;5034458;28;20056;-77
2023/01/04 06:09:52;;;;;;;3.65;3.25;;;;;;;;;;5043222;28;20408;-77
2023/01/04 06:12:20;;;;;;;4.32;3.38;;;;;;;;;;5051364;28;20053;-77
2023/01/04 06:14:46;;;;;;;3.92;3.30;;;;;;;;;;5051084;28;20051;-77
2023/01/04 06:17:13;;;;;;;4.60;3.90;;;;;;;;;;5051926;28;20059;-77
2023/01/04 06:19:40;;;;;;;5.40;4.25;;;;;;;;;;5048121;28;20045;-77
2023/01/04 06:22:07;;;;;;;7.28;4.82;;;;;;;;;;5050253;28;20094;-76
2023/01/04 06:24:34;;;;;;;15.15;9.93;;;;;;;;;;5050987;28;20079;-76
2023/01/04 06:27:01;;;;;;;8.25;5.70;;;;;;;;;;5052968;28;20057;-76
2023/01/04 06:29:28;;;;;;;7.78;5.22;;;;;;;;;;5064808;28;20045;-77
2023/01/04 06:31:55;;;;;;;14.60;9.18;;;;;;;;;;5038494;28;20052;-77
2023/01/04 06:34:23;;;;;;;6.63;3.95;;;;;;;;;;5049736;28;20049;-77
2023/01/04 06:36:56;;;;;;;5.05;3.63;;;;;;;;;;5050381;28;20056;-76
2023/01/04 06:39:22;;;;;;;3.70;2.90;;;;;;;;;;5033497;28;20056;-77
2023/01/04 06:41:49;;;;;;;2.53;2.30;;;;;;;;;;5049548;28;20071;-77
2023/01/04 06:44:16;;;;;;;3.33;2.70;;;;;;;;;;5050655;28;20041;-76
2023/01/04 06:46:42;;;;;;;4.65;2.47;;;;;;;;;;5066556;28;20049;-76
2023/01/04 06:49:09;;;;;;;3.10;2.55;;;;;;;;;;5066307;28;20139;-76
2023/01/04 06:51:36;;;;;;;2.95;2.28;;;;;;;;;;5065458;28;20056;-76
2023/01/04 06:54:03;;;;;;;2.00;1.80;;;;;;;;;;5048579;28;20425;-76
2023/01/04 06:56:31;;;;;;;2.25;1.90;;;;;;;;;;5058498;28;20416;-76
2023/01/04 06:58:58;;;;;;;2.63;2.10;;;;;;;;;;5068735;28;20067;-77
2023/01/04 07:01:24;;;;;;;3.08;1.70;;;;;;;;;;5054802;28;20424;-85
2023/01/04 07:03:51;;;;;;;2.08;1.60;;;;;;;;;;5091733;28;20075;-79
2023/01/04 07:06:18;;;;;;;2.78;2.08;;;;;;;;;;5071790;28;20389;-78
2023/01/04 07:08:45;;;;;;;2.38;1.77;;;;;;;;;;5051646;28;20049;-77
2023/01/04 07:11:12;;;;;;;5.65;4.63;;;;;;;;;;5021402;28;20075;-79
2023/01/04 07:13:39;;;;;;;2.60;2.22;;;;;;;;;;5031801;28;20064;-76
2023/01/04 07:16:06;;;;;;;2.25;2.05;;;;;;;;;;5048873;28;20060;-76
2023/01/04 07:18:32;;;;;;;2.10;1.90;;;;;;;;;;5050045;28;20060;-76
2023/01/04 07:20:59;;;;;;;3.72;2.72;;;;;;;;;;5031845;28;20064;-76
2023/01/04 07:23:26;;;;;;;4.35;2.67;;;;;;;;;;5049297;28;20485;-77
2023/01/04 07:25:53;;;;;;;3.90;2.67;;;;;;;;;;5050259;28;20415;-77
2023/01/04 07:31:06;;;;;;;2.53;2.10;;;;;;;;;;5068221;28;20080;-77
2023/01/04 07:33:33;;;;;;;2.40;2.20;;;;;;;;;;5052040;28;20056;-77
2023/01/04 07:36:02;;;;;;;2.63;2.10;;;;;;;;;;5069132;28;20144;-77
2023/01/04 07:38:29;;;;;;;2.47;2.15;;;;;;;;;;5066477;28;20459;-77
2023/01/04 07:40:55;;;;;;;2.38;1.80;;;;;;;;;;5068644;28;20488;-76
2023/01/04 07:43:22;;;;;;;2.72;1.63;;;;;;;;;;5087282;28;20048;-76
2023/01/04 07:45:54;;;;;;;3.97;2.72;;;;;;;;;;5084870;28;20142;-75
2023/01/04 07:48:21;;;;;;;2.92;2.30;;;;;;;;;;5054379;28;20448;-76
2023/01/04 07:50:48;;;;;;;5.47;3.42;;;;;;;;;;5048417;28;20064;-76
2023/01/04 07:53:15;;;;;;;4.32;2.40;;;;;;;;;;5042311;28;20055;-77
2023/01/04 07:55:42;;;;;;;5.53;3.35;;;;;;;;;;5052064;28;20067;-79
2023/01/04 07:58:09;;;;;;;4.15;2.70;;;;;;;;;;5068571;28;20060;-77
2023/01/04 08:00:35;;;;;;;4.50;2.22;;;;;;;;;;5091296;28;20420;-76
2023/01/04 08:03:02;;;;;;;4.60;2.33;;;;;;;;;;5089347;28;20063;-76
2023/01/04 08:05:33;;;;;;;3.38;2.03;;;;;;;;;;5087657;28;20052;-76
2023/01/04 08:07:59;;;;;;;2.67;1.90;;;;;;;;;;5058808;28;20131;-77
2023/01/04 08:10:27;;;;;;;3.83;2.15;;;;;;;;;;5049662;28;20521;-79
2023/01/04 08:12:53;;;;;;;3.63;2.17;;;;;;;;;;5048644;28;20169;-76
2023/01/04 08:15:20;;;;;;;3.70;1.90;;;;;;;;;;5051619;28;20044;-77
2023/01/04 08:17:47;;;;;;;3.80;1.80;;;;;;;;;;5067859;28;20060;-76
2023/01/04 08:20:13;;;;;;;2.78;1.73;;;;;;;;;;5068388;28;20075;-75
2023/01/04 08:22:40;;;;;;;2.45;1.48;;;;;;;;;;5070848;28;20056;-75
2023/01/04 08:25:07;;;;;;;3.90;1.90;;;;;;;;;;5071679;28;20076;-76
2023/01/04 08:27:34;;;;;;;2.55;1.48;;;;;;;;;;5042078;28;20057;-77
2023/01/04 08:30:03;;;;;;;3.75;1.95;;;;;;;;;;5033778;28;20048;-75
2023/01/04 08:32:31;;;;;;;2.63;1.40;;;;;;;;;;5043351;28;20045;-76
2023/01/04 08:34:58;;;;;;;1.85;1.60;;;;;;;;;;5068010;28;20052;-76
2023/01/04 08:37:25;;;;;;;2.65;1.92;;;;;;;;;;5048420;28;20053;-75
2023/01/04 08:39:51;;;;;;;3.75;2.13;;;;;;;;;;5049564;28;20052;-77
2023/01/04 08:42:21;;;;;;;3.83;1.85;;;;;;;;;;5057674;28;20059;-77
2023/01/04 08:44:59;;;;;;;2.35;1.70;;;;;;;;;;5048136;28;20059;-76
2023/01/04 08:47:30;;;;;;;2.67;1.92;;;;;;;;;;5010256;28;20065;-80
2023/01/04 08:49:58;;;;;;;2.60;1.60;;;;;;;;;;5011644;28;20053;-82
2023/01/04 08:52:31;;;;;;;2.65;1.92;;;;;;;;;;5007632;28;20517;-76
2023/01/04 08:54:58;;;;;;;2.33;1.20;;;;;;;;;;5048356;28;20052;-76
2023/01/04 08:57:25;;;;;;;3.40;2.17;;;;;;;;;;5051994;28;20059;-76
2023/01/04 08:59:51;;;;;;;3.33;1.70;;;;;;;;;;5050635;28;20106;-75
2023/01/04 09:02:21;;;;;;;2.58;1.77;;;;;;;;;;5049485;28;20048;-76
2023/01/04 09:04:48;;;;;;;2.72;1.33;;;;;;;;;;5050395;28;20500;-76
2023/01/04 09:07:16;;;;;;;3.10;1.73;;;;;;;;;;5034281;28;20057;-76
2023/01/04 09:09:42;;;;;;;3.03;1.70;;;;;;;;;;5050347;28;20060;-76
2023/01/04 09:12:10;;;;;;;1.40;1.15;;;;;;;;;;5050553;28;20059;-76
2023/01/04 09:14:38;;;;;;;1.70;1.38;;;;;;;;;;5050309;28;20053;-75
2023/01/04 09:17:04;;;;;;;2.15;1.40;;;;;;;;;;5040480;28;20522;-75
2023/01/04 09:19:31;;;;;;;1.30;1.17;;;;;;;;;;5070033;28;20055;-76
2023/01/04 09:21:58;;;;;;;3.72;1.77;;;;;;;;;;5053656;28;20063;-76
2023/01/04 09:24:25;;;;;;;4.00;1.30;;;;;;;;;;5070457;28;20492;-76
2023/01/04 09:26:51;;;;;;;2.60;1.20;;;;;;;;;;5069523;28;20090;-75
2023/01/04 09:29:18;;;;;;;1.25;1.10;;;;;;;;;;5069668;28;20052;-75
2023/01/04 09:31:45;;;;;;;4.38;1.60;;;;;;;;;;5056905;28;20508;-75
2023/01/04 09:34:12;;;;;;;4.35;1.48;;;;;;;;;;5033075;28;20610;-75
2023/01/04 09:36:43;;;;;;;4.40;1.38;;;;;;;;;;5034117;28;20467;-75
2023/01/04 09:39:11;;;;;;;2.20;1.00;;;;;;;;;;5033491;28;20059;-76
2023/01/04 09:41:59;;;;;;;1.05;0.93;;;;;;;;;;5035192;28;20053;-76
2023/01/04 09:44:44;;;;;;;3.05;1.35;;;;;;;;;;5043110;28;20123;-76
2023/01/04 09:47:39;;;;;;;1.50;0.90;;;;;;;;;;5059106;28;20048;-76
2023/01/04 09:50:23;;;;;;;4.15;1.23;;;;;;;;;;5038235;28;20413;-76
2023/01/04 09:52:52;;;;;;;3.60;1.55;;;;;;;;;;5053738;28;20052;-76
2023/01/04 09:55:25;;;;;;;1.52;0.90;;;;;;;;;;5070236;28;20053;-75
2023/01/04 09:58:26;;;;;;;2.08;0.90;;;;;;;;;;5039315;28;20419;-76
2023/01/04 10:01:31;;;;;;;1.75;0.70;;;;;;;;;;5033295;28;20060;-75
2023/01/04 10:04:25;;;;;;;3.78;0.80;;;;;;;;;;5016277;28;20056;-76
2023/01/04 10:06:52;;;;;;;2.60;0.70;;;;;;;;;;5033029;28;20436;-76
2023/01/04 10:09:23;;;;;;;2.25;0.98;;;;;;;;;;5049398;28;20064;-75
2023/01/04 10:12:20;;;;;;;1.25;0.70;;;;;;;;;;5049386;28;20048;-76
2023/01/04 10:14:50;;;;;;;1.83;0.93;;;;;;;;;;5029101;28;20049;-75
2023/01/04 10:17:46;;;;;;;4.80;1.38;;;;;;;;;;5029666;28;20054;-82
2023/01/04 10:20:59;;;;;;;1.98;1.00;;;;;;;;;;5039320;28;20548;-76
2023/01/04 10:24:17;;;;;;;1.15;0.70;;;;;;;;;;5031450;28;20061;-75
2023/01/04 10:26:49;;;;;;;1.35;0.73;;;;;;;;;;5033887;28;20523;-74
2023/01/04 10:29:25;;;;;;;0.98;0.73;;;;;;;;;;5040609;28;20052;-75
2023/01/04 10:31:57;;;;;;;0.88;0.65;;;;;;;;;;5068880;28;20059;-76
2023/01/04 10:34:29;;;;;;;1.40;0.70;;;;;;;;;;5027745;28;20488;-74
2023/01/04 10:37:04;;;;;;;1.00;0.70;;;;;;;;;;5020664;28;20053;-75
2023/01/04 10:39:32;;;;;;;0.60;0.60;;;;;;;;;;5030037;28;20056;-76
2023/01/04 10:42:07;;;;;;;2.55;0.82;;;;;;;;;;5022939;28;20053;-75
2023/01/04 10:44:49;;;;;;;1.48;0.68;;;;;;;;;;5024038;28;20049;-74
2023/01/04 10:47:22;;;;;;;0.85;0.60;;;;;;;;;;5039701;28;20063;-75
2023/01/04 10:49:55;;;;;;;4.28;0.90;;;;;;;;;;5049629;28;20842;-75
2023/01/04 10:52:36;;;;;;;3.55;1.55;;;;;;;;;;5038738;28;20052;-73
2023/01/04 10:55:07;;;;;;;3.17;1.80;;;;;;;;;;5039648;28;20048;-76
2023/01/04 10:57:36;;;;;;;5.10;2.45;;;;;;;;;;5021867;28;20053;-76
2023/01/04 11:00:08;;;;;;;2.72;1.30;;;;;;;;;;5023802;28;20688;-80
2023/01/04 11:02:53;;;;;;;4.03;1.40;;;;;;;;;;5029111;28;20048;-78
2023/01/04 11:05:28;;;;;;;5.35;1.90;;;;;;;;;;5056023;28;20045;-78
2023/01/04 11:08:17;;;;;;;3.17;1.40;;;;;;;;;;5038538;28;20562;-78
2023/01/04 11:10:54;;;;;;;1.95;1.30;;;;;;;;;;5057156;28;20437;-78
2023/01/04 11:13:22;;;;;;;1.13;0.73;;;;;;;;;;5045592;28;20136;-78
2023/01/04 11:15:49;;;;;;;2.50;1.00;;;;;;;;;;5030929;28;20087;-79
2023/01/04 11:18:16;;;;;;;1.63;0.90;;;;;;;;;;5011697;28;20061;-79
2023/01/04 11:20:44;;;;;;;2.97;1.05;;;;;;;;;;5050037;28;20799;-78
2023/01/04 11:23:12;;;;;;;2.00;1.20;;;;;;;;;;5034246;28;20097;-78
2023/01/04 11:25:51;;;;;;;2.10;1.00;;;;;;;;;;5046201;28;20045;-77
2023/01/04 11:28:31;;;;;;;1.88;0.90;;;;;;;;;;5059870;28;20045;-78
2023/01/04 11:31:16;;;;;;;1.85;0.90;;;;;;;;;;5055781;28;20467;-80
2023/01/04 11:34:02;;;;;;;1.75;0.77;;;;;;;;;;5024129;28;20116;-80
2023/01/04 11:36:41;;;;;;;1.35;0.60;;;;;;;;;;5014827;28;20052;-79
2023/01/04 11:39:19;;;;;;;1.02;0.80;;;;;;;;;;5028889;28;20049;-78
2023/01/04 11:42:03;;;;;;;1.83;0.75;;;;;;;;;;5043104;28;20121;-79
2023/01/04 11:44:33;;;;;;;1.85;1.10;;;;;;;;;;5035537;28;20053;-78
2023/01/04 11:47:19;;;;;;;3.25;0.50;;;;;;;;;;5017247;28;20088;-78
2023/01/04 11:49:47;;;;;;;1.60;0.63;;;;;;;;;;5047893;28;20511;-78
2023/01/04 11:52:26;;;;;;;2.40;0.65;;;;;;;;;;5034612;28;20061;-77
2023/01/04 11:54:52;;;;;;;1.67;0.70;;;;;;;;;;5064712;28;20077;-78
2023/01/04 11:57:19;;;;;;;0.75;0.52;;;;;;;;;;5049523;28;20053;-78
2023/01/04 12:00:07;;;;;;;0.82;0.50;;;;;;;;;;5046414;28;20049;-78
2023/01/04 12:02:34;;;;;;;2.75;1.23;;;;;;;;;;5065623;28;20049;-78
2023/01/04 12:05:21;;;;;;;1.63;0.60;;;;;;;;;;5050315;28;20075;-78
2023/01/04 12:07:57;;;;;;;1.23;0.77;;;;;;;;;;5040177;28;20057;-79
2023/01/04 12:10:25;;;;;;;1.83;0.60;;;;;;;;;;5028326;28;20057;-78
2023/01/04 12:12:53;;;;;;;1.38;0.63;;;;;;;;;;5038329;28;20073;-78
2023/01/04 12:15:48;;;;;;;0.90;0.52;;;;;;;;;;5034604;28;20064;-78
2023/01/04 12:18:20;;;;;;;1.05;0.90;;;;;;;;;;5031748;28;20136;-77
2023/01/04 12:20:47;;;;;;;1.52;0.73;;;;;;;;;;5049838;28;20128;-78
2023/01/04 12:23:19;;;;;;;1.58;0.70;;;;;;;;;;5051945;28;20085;-77
2023/01/04 12:25:51;;;;;;;2.17;0.70;;;;;;;;;;5042727;28;20101;-78
2023/01/04 12:28:28;;;;;;;0.82;0.70;;;;;;;;;;5029276;28;21135;-78
2023/01/04 12:31:19;;;;;;;1.13;0.50;;;;;;;;;;5033825;28;20055;-76
2023/01/04 12:33:58;;;;;;;2.05;0.80;;;;;;;;;;5026374;28;20071;-77
2023/01/04 12:36:37;;;;;;;2.05;0.60;;;;;;;;;;5040575;28;20046;-77
2023/01/04 12:39:29;;;;;;;2.75;0.73;;;;;;;;;;5041617;28;20080;-77
2023/01/04 12:42:02;;;;;;;0.93;0.63;;;;;;;;;;5058091;28;20504;-77
2023/01/04 12:44:36;;;;;;;0.98;0.60;;;;;;;;;;5054874;28;20053;-77
2023/01/04 12:50:09;;;;;;;3.45;1.05;;;;;;;;;;5055834;28;20357;-78
2023/01/04 12:52:54;;;;;;;0.90;0.65;;;;;;;;;;5007790;28;20102;-77
2023/01/04 12:55:44;;;;;;;1.60;0.90;;;;;;;;;;5039914;28;20041;-78
2023/01/04 12:58:26;;;;;;;1.95;0.70;;;;;;;;;;5054127;28;20088;-78
2023/01/04 13:01:24;;;;;;;1.40;0.77;;;;;;;;;;5039655;28;20049;-78
2023/01/04 13:04:03;;;;;;;1.00;0.57;;;;;;;;;;5022056;28;20069;-78
2023/01/04 13:06:34;;;;;;;2.30;0.82;;;;;;;;;;5041223;28;20049;-77
2023/01/04 13:09:02;;;;;;;2.95;0.95;;;;;;;;;;5041481;28;20546;-77
2023/01/04 13:11:40;;;;;;;1.80;0.70;;;;;;;;;;5021774;28;20060;-77
2023/01/04 13:14:13;;;;;;;0.98;0.60;;;;;;;;;;5040579;28;20061;-78
2023/01/04 13:17:07;;;;;;;2.80;0.60;;;;;;;;;;5038215;28;20095;-78
2023/01/04 13:19:37;;;;;;;1.20;0.50;;;;;;;;;;5053211;28;20051;-78
2023/01/04 13:22:09;;;;;;;1.45;0.40;;;;;;;;;;5023389;28;20106;-78
2023/01/04 13:24:37;;;;;;;1.88;0.60;;;;;;;;;;5026386;28;20489;-78
2023/01/04 13:27:06;;;;;;;3.45;0.68;;;;;;;;;;5028302;28;20398;-77
2023/01/04 13:29:34;;;;;;;3.60;0.70;;;;;;;;;;5043948;28;20120;-77
2023/01/04 13:32:25;;;;;;;1.85;0.85;;;;;;;;;;5032803;28;20057;-78
2023/01/04 13:35:01;;;;;;;3.60;1.02;;;;;;;;;;5032480;28;20050;-78
2023/01/04 13:37:39;;;;;;;1.38;0.60;;;;;;;;;;5036670;28;20069;-78
2023/01/04 13:40:27;;;;;;;1.60;0.80;;;;;;;;;;5026783;28;20136;-78
2023/01/04 13:43:29;;;;;;;1.73;0.80;;;;;;;;;;5034844;28;20892;-77
2023/01/04 13:46:08;;;;;;;1.02;0.55;;;;;;;;;;5045362;28;20072;-78
2023/01/04 13:48:37;;;;;;;1.05;0.50;;;;;;;;;;5054552;28;20053;-78
2023/01/04 13:51:29;;;;;;;1.95;0.77;;;;;;;;;;5021494;28;20053;-77
2023/01/04 13:54:16;;;;;;;1.33;0.40;;;;;;;;;;5043464;28;20488;-78
2023/01/04 13:56:43;;;;;;;1.33;0.93;;;;;;;;;;5039780;28;20124;-79
2023/01/04 13:59:19;;;;;;;1.90;1.17;;;;;;;;;;5035444;28;20538;-77
2023/01/04 14:01:49;;;;;;;6.93;3.42;;;;;;;;;;5043651;28;20041;-78
2023/01/04 14:04:27;;;;;;;3.25;1.85;;;;;;;;;;5036922;28;20050;-77
2023/01/04 14:06:56;;;;;;;2.10;1.00;;;;;;;;;;5051580;28;20067;-77
2023/01/04 14:09:24;;;;;;;1.50;0.70;;;;;;;;;;5011095;28;20049;-77
2023/01/04 14:11:58;;;;;;;1.20;1.10;;;;;;;;;;5022433;28;20049;-77
2023/01/04 14:14:57;;;;;;;0.50;0.50;;;;;;;;;;5008063;28;20735;-77
2023/01/04 14:17:54;;;;;;;1.38;0.70;;;;;;;;;;5050141;28;20064;-77
2023/01/04 14:20:24;;;;;;;0.80;0.35;;;;;;;;;;5005603;28;20045;-77
2023/01/04 14:22:52;;;;;;;0.90;0.73;;;;;;;;;;5053576;28;20473;-78
2023/01/04 14:25:39;;;;;;;1.20;0.63;;;;;;;;;;5036562;28;20057;-77
2023/01/04 14:28:19;;;;;;;0.90;0.60;;;;;;;;;;5055335;28;20049;-78
2023/01/04 14:30:55;;;;;;;1.48;0.47;;;;;;;;;;5063885;28;20052;-77
2023/01/04 14:33:31;;;;;;;3.17;0.60;;;;;;;;;;5019192;28;20475;-78
2023/01/04 14:36:05;;;;;;;1.02;0.75;;;;;;;;;;5012745;28;20045;-77
2023/01/04 14:38:35;;;;;;;2.33;0.40;;;;;;;;;;5034578;28;20124;-77
2023/01/04 14:41:11;;;;;;;1.58;0.68;;;;;;;;;;5051006;28;20488;-78
2023/01/04 14:43:54;;;;;;;1.10;0.70;;;;;;;;;;5050373;28;20057;-77
2023/01/04 14:46:22;;;;;;;1.75;0.75;;;;;;;;;;5033939;28;20425;-77
2023/01/04 14:48:48;;;;;;;1.98;0.63;;;;;;;;;;5016684;28;20060;-77
2023/01/04 14:51:18;;;;;;;1.85;0.80;;;;;;;;;;5049916;28;20053;-77
2023/01/04 14:53:45;;;;;;;0.80;0.47;;;;;;;;;;5016649;28;20048;-77
2023/01/04 14:56:13;;;;;;;1.75;1.20;;;;;;;;;;5033630;28;20056;-77
2023/01/04 14:58:40;;;;;;;1.60;0.82;;;;;;;;;;5049790;28;20056;-76
2023/01/04 15:01:08;;;;;;;1.27;0.70;;;;;;;;;;5033237;28;20076;-77
2023/01/04 15:03:35;;;;;;;1.38;0.80;;;;;;;;;;5033141;28;20057;-77
2023/01/04 15:06:03;;;;;;;1.38;0.60;;;;;;;;;;5049350;28;20068;-77
2023/01/04 15:08:30;;;;;;;0.77;0.55;;;;;;;;;;5017136;28;20087;-77
2023/01/04 15:10:57;;;;;;;2.58;1.38;;;;;;;;;;5033092;28;20057;-77
2023/01/04 15:13:26;;;;;;;1.45;0.50;;;;;;;;;;5032721;28;20052;-77
2023/01/04 15:15:53;;;;;;;0.45;0.40;;;;;;;;;;5032994;28;20620;-77
2023/01/04 15:18:19;;;;;;;1.52;0.30;;;;;;;;;;5048703;28;20087;-77
2023/01/04 15:20:46;;;;;;;3.40;0.80;;;;;;;;;;5049133;28;20067;-76
2023/01/04 15:23:13;;;;;;;2.75;0.70;;;;;;;;;;5066790;28;20106;-77
2023/01/04 15:25:40;;;;;;;1.90;0.80;;;;;;;;;;5053418;28;20056;-77
2023/01/04 15:28:07;;;;;;;0.93;0.60;;;;;;;;;;5052915;28;20052;-77
2023/01/04 15:30:34;;;;;;;2.50;1.00;;;;;;;;;;5054264;28;20651;-78
2023/01/04 15:33:00;;;;;;;4.38;1.50;;;;;;;;;;5036463;28;20049;-78
2023/01/04 15:35:27;;;;;;;7.50;3.60;;;;;;;;;;5053165;28;20049;-77
2023/01/04 15:37:54;;;;;;;3.33;1.85;;;;;;;;;;5052817;28;20846;-77
2023/01/04 15:40:20;;;;;;;2.92;1.60;;;;;;;;;;5054069;28;20049;-78
2023/01/04 15:42:59;;;;;;;2.50;1.13;;;;;;;;;;5021090;28;20450;-78
2023/01/04 15:45:27;;;;;;;0.77;0.70;;;;;;;;;;5054351;28;20106;-77
2023/01/04 15:47:56;;;;;;;1.50;0.90;;;;;;;;;;5037506;28;20126;-78
2023/01/04 15:50:23;;;;;;;0.60;0.60;;;;;;;;;;5038563;28;20068;-78
2023/01/04 15:52:50;;;;;;;2.55;1.23;;;;;;;;;;5038293;28;20083;-78
2023/01/04 15:55:16;;;;;;;0.60;0.47;;;;;;;;;;5054631;28;20511;-78
2023/01/04 15:57:43;;;;;;;1.35;0.98;;;;;;;;;;5038148;28;20061;-78
2023/01/04 16:00:10;;;;;;;1.40;1.10;;;;;;;;;;5038316;28;20053;-78
2023/01/04 16:02:37;;;;;;;2.65;1.20;;;;;;;;;;5054637;28;20068;-78